sensor_id;sensor_type;location;lat;lon;timestamp;P1;durP1;ratioP1;P2;durP2;ratioP2
12842;SDS011;35724;49.324;-123.118;2023-05-15T00:06:01;3.83;;;2.50;;
12842;SDS011;35724;49.324;-123.118;2023-05-15T00:16:08;3.15;;;2.40;;
12842;SDS011;35724;49.324;-123.118;2023-05-15T00:26:17;4.47;;;2.40;;
12842;SDS011;35724;49.324;-123.118;2023-05-15T00:36:24;3.90;;;2.38;;
12842;SDS011;35724;49.324;-123.118;2023-05-15T00:46:33;4.07;;;2.80;;
12842;SDS011;35724;49.324;-123.118;2023-05-15T00:56:41;3.83;;;2.40;;
12842;SDS011;35724;49.324;-123.118;2023-05-15T01:06:52;3.45;;;2.05;;
12842;SDS011;35724;49.324;-123.118;2023-05-15T01:17:01;3.88;;;2.20;;
12842;SDS011;35724;49.324;-123.118;2023-05-15T01:27:15;3.50;;;2.00;;
12842;SDS011;35724;49.324;-123.118;2023-05-15T01:37:27;5.25;;;3.00;;
12842;SDS011;35724;49.324;-123.118;2023-05-15T01:47:39;7.13;;;4.13;;
12842;SDS011;35724;49.324;-123.118;2023-05-15T01:57:49;4.05;;;2.67;;
12842;SDS011;35724;49.324;-123.118;2023-05-15T02:08:01;7.05;;;3.60;;
12842;SDS011;35724;49.324;-123.118;2023-05-15T02:18:08;4.28;;;2.50;;
12842;SDS011;35724;49.324;-123.118;2023-05-15T02:28:21;3.92;;;2.53;;
12842;SDS011;35724;49.324;-123.118;2023-05-15T02:38:34;5.45;;;4.00;;
12842;SDS011;35724;49.324;-123.118;2023-05-15T02:59:37;7.10;;;3.03;;
12842;SDS011;35724;49.324;-123.118;2023-05-15T03:09:51;7.55;;;5.05;;
12842;SDS011;35724;49.324;-123.118;2023-05-15T03:20:15;4.32;;;3.42;;
12842;SDS011;35724;49.324;-123.118;2023-05-15T03:30:22;4.90;;;3.22;;
12842;SDS011;35724;49.324;-123.118;2023-05-15T03:40:34;3.92;;;2.92;;
12842;SDS011;35724;49.324;-123.118;2023-05-15T04:01:33;4.28;;;2.80;;
12842;SDS011;35724;49.324;-123.118;2023-05-15T04:13:07;4.97;;;3.05;;
12842;SDS011;35724;49.324;-123.118;2023-05-15T04:23:25;3.40;;;2.67;;
12842;SDS011;35724;49.324;-123.118;2023-05-15T04:33:36;4.55;;;2.78;;
12842;SDS011;35724;49.324;-123.118;2023-05-15T04:43:44;3.03;;;2.35;;
12842;SDS011;35724;49.324;-123.118;2023-05-15T04:53:52;2.67;;;2.47;;
12842;SDS011;35724;49.324;-123.118;2023-05-15T05:04:03;2.75;;;2.40;;
12842;SDS011;35724;49.324;-123.118;2023-05-15T05:14:11;2.75;;;2.47;;
12842;SDS011;35724;49.324;-123.118;2023-05-15T05:24:20;2.72;;;2.50;;
12842;SDS011;35724;49.324;-123.118;2023-05-15T05:34:27;3.13;;;2.78;;
12842;SDS011;35724;49.324;-123.118;2023-05-15T05:44:35;3.42;;;2.67;;
12842;SDS011;35724;49.324;-123.118;2023-05-15T05:54:43;4.78;;;2.67;;
12842;SDS011;35724;49.324;-123.118;2023-05-15T06:04:52;2.75;;;2.55;;
12842;SDS011;35724;49.324;-123.118;2023-05-15T06:14:59;2.80;;;2.50;;
12842;SDS011;35724;49.324;-123.118;2023-05-15T06:25:07;2.80;;;2.60;;
12842;SDS011;35724;49.324;-123.118;2023-05-15T06:35:16;3.55;;;2.95;;
12842;SDS011;35724;49.324;-123.118;2023-05-15T06:45:27;2.60;;;2.40;;
12842;SDS011;35724;49.324;-123.118;2023-05-15T06:55:34;2.50;;;2.30;;
12842;SDS011;35724;49.324;-123.118;2023-05-15T07:05:43;2.70;;;2.40;;
12842;SDS011;35724;49.324;-123.118;2023-05-15T07:15:50;2.63;;;2.42;;
12842;SDS011;35724;49.324;-123.118;2023-05-15T07:26:01;2.50;;;2.30;;
12842;SDS011;35724;49.324;-123.118;2023-05-15T07:36:13;2.50;;;2.30;;
12842;SDS011;35724;49.324;-123.118;2023-05-15T07:46:22;2.80;;;2.60;;
12842;SDS011;35724;49.324;-123.118;2023-05-15T07:56:29;2.70;;;2.50;;
12842;SDS011;35724;49.324;-123.118;2023-05-15T08:06:38;2.90;;;2.63;;
12842;SDS011;35724;49.324;-123.118;2023-05-15T08:16:48;2.60;;;2.40;;
12842;SDS011;35724;49.324;-123.118;2023-05-15T08:27:07;2.60;;;2.40;;
12842;SDS011;35724;49.324;-123.118;2023-05-15T08:37:14;2.20;;;2.05;;
12842;SDS011;35724;49.324;-123.118;2023-05-15T08:57:47;2.45;;;2.25;;
12842;SDS011;35724;49.324;-123.118;2023-05-15T09:08:02;2.30;;;2.10;;
12842;SDS011;35724;49.324;-123.118;2023-05-15T09:18:18;2.13;;;2.00;;
12842;SDS011;35724;49.324;-123.118;2023-05-15T09:28:28;2.55;;;2.35;;
12842;SDS011;35724;49.324;-123.118;2023-05-15T09:38:43;2.33;;;2.13;;
12842;SDS011;35724;49.324;-123.118;2023-05-15T09:48:54;2.28;;;2.08;;
12842;SDS011;35724;49.324;-123.118;2023-05-15T09:59:05;2.33;;;2.13;;
12842;SDS011;35724;49.324;-123.118;2023-05-15T10:09:18;2.83;;;2.08;;
12842;SDS011;35724;49.324;-123.118;2023-05-15T10:19:25;2.80;;;2.60;;
12842;SDS011;35724;49.324;-123.118;2023-05-15T10:30:03;2.08;;;1.88;;
12842;SDS011;35724;49.324;-123.118;2023-05-15T10:40:13;2.50;;;2.30;;
12842;SDS011;35724;49.324;-123.118;2023-05-15T10:50:23;2.22;;;2.03;;
12842;SDS011;35724;49.324;-123.118;2023-05-15T11:00:32;2.45;;;2.00;;
12842;SDS011;35724;49.324;-123.118;2023-05-15T11:10:47;2.92;;;2.22;;
12842;SDS011;35724;49.324;-123.118;2023-05-15T11:21:10;2.17;;;1.98;;
12842;SDS011;35724;49.324;-123.118;2023-05-15T11:31:20;2.10;;;2.00;;
12842;SDS011;35724;49.324;-123.118;2023-05-15T11:41:35;2.40;;;2.20;;
12842;SDS011;35724;49.324;-123.118;2023-05-15T11:51:52;2.47;;;2.28;;
12842;SDS011;35724;49.324;-123.118;2023-05-15T12:02:00;2.30;;;2.10;;
12842;SDS011;35724;49.324;-123.118;2023-05-15T12:12:13;2.83;;;2.10;;
12842;SDS011;35724;49.324;-123.118;2023-05-15T12:22:20;2.10;;;2.00;;
12842;SDS011;35724;49.324;-123.118;2023-05-15T12:32:29;2.13;;;1.90;;
12842;SDS011;35724;49.324;-123.118;2023-05-15T12:42:38;2.08;;;1.98;;
12842;SDS011;35724;49.324;-123.118;2023-05-15T12:52:48;2.25;;;2.10;;
12842;SDS011;35724;49.324;-123.118;2023-05-15T13:02:57;2.13;;;2.03;;
12842;SDS011;35724;49.324;-123.118;2023-05-15T13:13:05;2.00;;;1.90;;
12842;SDS011;35724;49.324;-123.118;2023-05-15T13:23:13;2.42;;;2.22;;
12842;SDS011;35724;49.324;-123.118;2023-05-15T13:33:22;2.42;;;2.22;;
12842;SDS011;35724;49.324;-123.118;2023-05-15T13:43:29;2.30;;;2.10;;
12842;SDS011;35724;49.324;-123.118;2023-05-15T13:53:37;2.22;;;2.00;;
12842;SDS011;35724;49.324;-123.118;2023-05-15T14:03:45;2.40;;;2.20;;
12842;SDS011;35724;49.324;-123.118;2023-05-15T14:13:54;2.40;;;2.20;;
12842;SDS011;35724;49.324;-123.118;2023-05-15T14:35:01;2.42;;;2.22;;
12842;SDS011;35724;49.324;-123.118;2023-05-15T14:45:41;3.88;;;2.40;;
12842;SDS011;35724;49.324;-123.118;2023-05-15T15:08:00;2.60;;;2.35;;
12842;SDS011;35724;49.324;-123.118;2023-05-15T15:18:08;3.92;;;2.58;;
12842;SDS011;35724;49.324;-123.118;2023-05-15T15:28:16;4.85;;;2.95;;
12842;SDS011;35724;49.324;-123.118;2023-05-15T15:38:24;4.78;;;2.72;;
12842;SDS011;35724;49.324;-123.118;2023-05-15T15:48:32;3.20;;;2.60;;
12842;SDS011;35724;49.324;-123.118;2023-05-15T15:58:39;3.97;;;2.58;;
12842;SDS011;35724;49.324;-123.118;2023-05-15T16:08:48;4.07;;;2.85;;
12842;SDS011;35724;49.324;-123.118;2023-05-15T16:18:55;2.92;;;2.67;;
12842;SDS011;35724;49.324;-123.118;2023-05-15T16:29:04;8.23;;;7.10;;
12842;SDS011;35724;49.324;-123.118;2023-05-15T16:39:11;12.70;;;11.23;;
12842;SDS011;35724;49.324;-123.118;2023-05-15T16:49:20;11.80;;;10.40;;
12842;SDS011;35724;49.324;-123.118;2023-05-15T16:59:27;8.93;;;8.02;;
12842;SDS011;35724;49.324;-123.118;2023-05-15T17:09:36;9.50;;;6.72;;
12842;SDS011;35724;49.324;-123.118;2023-05-15T17:19:45;6.85;;;5.15;;
12842;SDS011;35724;49.324;-123.118;2023-05-15T17:29:54;4.63;;;4.07;;
12842;SDS011;35724;49.324;-123.118;2023-05-15T17:40:01;6.30;;;3.80;;
12842;SDS011;35724;49.324;-123.118;2023-05-15T17:50:10;4.72;;;3.45;;
12842;SDS011;35724;49.324;-123.118;2023-05-15T18:00:18;5.53;;;3.50;;
12842;SDS011;35724;49.324;-123.118;2023-05-15T18:10:27;4.60;;;3.38;;
12842;SDS011;35724;49.324;-123.118;2023-05-15T18:20:34;3.83;;;3.15;;
12842;SDS011;35724;49.324;-123.118;2023-05-15T18:30:43;6.05;;;3.15;;
12842;SDS011;35724;49.324;-123.118;2023-05-15T18:40:50;4.78;;;3.22;;
12842;SDS011;35724;49.324;-123.118;2023-05-15T18:51:01;5.78;;;3.50;;
12842;SDS011;35724;49.324;-123.118;2023-05-15T19:14:02;5.07;;;4.00;;
12842;SDS011;35724;49.324;-123.118;2023-05-15T19:24:15;5.28;;;3.72;;
12842;SDS011;35724;49.324;-123.118;2023-05-15T19:34:28;3.72;;;3.33;;
12842;SDS011;35724;49.324;-123.118;2023-05-15T19:44:35;3.50;;;3.20;;
12842;SDS011;35724;49.324;-123.118;2023-05-15T19:54:43;4.13;;;3.38;;
12842;SDS011;35724;49.324;-123.118;2023-05-15T20:04:50;4.72;;;3.25;;
12842;SDS011;35724;49.324;-123.118;2023-05-15T20:14:59;5.30;;;3.50;;
12842;SDS011;35724;49.324;-123.118;2023-05-15T20:25:06;4.50;;;3.40;;
12842;SDS011;35724;49.324;-123.118;2023-05-15T20:35:15;3.63;;;3.28;;
12842;SDS011;35724;49.324;-123.118;2023-05-15T20:45:22;3.20;;;2.90;;
12842;SDS011;35724;49.324;-123.118;2023-05-15T20:55:31;3.20;;;2.90;;
12842;SDS011;35724;49.324;-123.118;2023-05-15T21:05:38;4.03;;;3.00;;
12842;SDS011;35724;49.324;-123.118;2023-05-15T21:15:46;4.60;;;3.08;;
12842;SDS011;35724;49.324;-123.118;2023-05-15T21:25:53;3.97;;;3.10;;
12842;SDS011;35724;49.324;-123.118;2023-05-15T21:36:02;3.20;;;2.90;;
12842;SDS011;35724;49.324;-123.118;2023-05-15T21:46:09;4.40;;;3.05;;
12842;SDS011;35724;49.324;-123.118;2023-05-15T21:56:17;3.10;;;2.80;;
12842;SDS011;35724;49.324;-123.118;2023-05-15T22:06:24;3.05;;;2.70;;
12842;SDS011;35724;49.324;-123.118;2023-05-15T22:16:33;3.20;;;2.90;;
12842;SDS011;35724;49.324;-123.118;2023-05-15T22:26:40;3.40;;;3.10;;
12842;SDS011;35724;49.324;-123.118;2023-05-15T22:36:49;3.45;;;2.95;;
12842;SDS011;35724;49.324;-123.118;2023-05-15T22:47:00;3.17;;;2.97;;
12842;SDS011;35724;49.324;-123.118;2023-05-15T22:57:10;4.55;;;3.28;;
12842;SDS011;35724;49.324;-123.118;2023-05-15T23:07:17;3.00;;;2.70;;
12842;SDS011;35724;49.324;-123.118;2023-05-15T23:17:26;2.85;;;2.65;;
12842;SDS011;35724;49.324;-123.118;2023-05-15T23:27:33;3.10;;;2.75;;
12842;SDS011;35724;49.324;-123.118;2023-05-15T23:37:41;4.55;;;2.50;;
12842;SDS011;35724;49.324;-123.118;2023-05-15T23:47:48;3.03;;;2.70;;
12842;SDS011;35724;49.324;-123.118;2023-05-15T23:57:57;3.00;;;2.70;;
